createdAt,value
2022-10-22T00:01:21.939Z,96211.25
2022-10-22T00:03:48.910Z,96216.31
2022-10-22T00:06:16.110Z,96222.81
2022-10-22T00:08:43.084Z,96210.09
2022-10-22T00:11:15.448Z,96204.84
2022-10-22T00:13:42.874Z,96203.75
2022-10-22T00:16:10.248Z,96193.28
2022-10-22T00:18:37.816Z,96192.22
2022-10-22T00:21:06.209Z,96195.63
2022-10-22T00:23:33.649Z,96191.91
2022-10-22T00:26:00.709Z,96192.94
2022-10-22T00:28:27.869Z,96196.59
2022-10-22T00:30:59.691Z,96185.03
2022-10-22T00:33:29.030Z,96194.72
2022-10-22T00:35:56.748Z,96207.59
2022-10-22T00:38:24.070Z,96199.72
2022-10-22T00:40:51.216Z,96198.66
2022-10-22T00:43:19.630Z,96205.75
2022-10-22T00:45:46.991Z,96192.66
2022-10-22T00:48:23.668Z,96195.53
2022-10-22T00:51:08.557Z,96193.44
2022-10-22T00:53:39.849Z,96190.50
2022-10-22T00:56:07.912Z,96196.72
2022-10-22T00:58:39.170Z,96201.97
2022-10-22T01:01:09.068Z,96196.16
2022-10-22T01:03:36.370Z,96185.91
2022-10-22T01:06:05.289Z,96186.94
2022-10-22T01:08:46.815Z,96191.94
2022-10-22T01:11:34.789Z,96190.63
2022-10-22T01:14:13.968Z,96185.91
2022-10-22T01:17:14.813Z,96179.09
2022-10-22T01:20:10.934Z,96175.44
2022-10-22T01:22:44.668Z,96170.69
2022-10-22T01:25:34.537Z,96174.91
2022-10-22T01:28:10.410Z,96160.75
2022-10-22T01:30:39.749Z,96153.69
2022-10-22T01:33:11.009Z,96146.31
2022-10-22T01:35:42.238Z,96142.66
2022-10-22T01:38:19.289Z,96135.31
2022-10-22T01:40:47.917Z,96136.91
2022-10-22T01:43:15.431Z,96133.03
2022-10-22T01:45:54.534Z,96138.81
2022-10-22T01:49:11.349Z,96154.72
2022-10-22T01:52:05.090Z,96144.66
2022-10-22T01:54:52.308Z,96133.69
2022-10-22T01:57:33.849Z,96126.84
2022-10-22T02:00:10.833Z,96123.75
2022-10-22T02:02:53.569Z,96114.88
2022-10-22T02:05:36.669Z,96109.06
2022-10-22T02:08:11.357Z,96113.28
2022-10-22T02:10:40.889Z,96105.59
2022-10-22T02:13:16.132Z,96097.22
2022-10-22T02:15:46.288Z,96094.88
2022-10-22T02:18:15.508Z,96085.44
2022-10-22T02:20:42.769Z,96075.19
2022-10-22T02:23:10.730Z,96075.19
2022-10-22T02:25:42.028Z,96078.84
2022-10-22T02:28:22.609Z,96077.56
2022-10-22T02:30:55.830Z,96068.88
2022-10-22T02:33:28.950Z,96078.59
2022-10-22T02:35:57.049Z,96078.38
2022-10-22T02:38:25.949Z,96071.47
2022-10-22T02:40:53.269Z,96067.00
2022-10-22T02:43:20.388Z,96075.13
2022-10-22T02:45:47.730Z,96078.56
2022-10-22T02:48:14.831Z,96059.66
2022-10-22T02:50:42.130Z,96054.88
2022-10-22T02:53:09.110Z,96063.06
2022-10-22T02:55:36.130Z,96072.50
2022-10-22T02:58:03.129Z,96079.81
2022-10-22T03:00:30.121Z,96077.44
2022-10-22T03:02:57.189Z,96059.50
2022-10-22T03:05:24.189Z,96069.75
2022-10-22T03:07:51.209Z,96076.81
2022-10-22T03:10:18.252Z,96065.31
2022-10-22T03:12:45.249Z,96070.06
2022-10-22T03:15:12.230Z,96085.00
2022-10-22T03:17:39.382Z,96068.22
2022-10-22T03:20:07.078Z,96070.06
2022-10-22T03:22:36.310Z,96064.03
2022-10-22T03:25:10.490Z,96062.13
2022-10-22T03:27:40.007Z,96055.06
2022-10-22T03:30:08.289Z,96055.56
2022-10-22T03:32:35.329Z,96054.78
2022-10-22T03:35:02.370Z,96052.94
2022-10-22T03:37:30.429Z,96046.66
2022-10-22T03:39:58.048Z,96045.09
2022-10-22T03:42:25.290Z,96050.34
2022-10-22T03:44:52.809Z,96059.28
2022-10-22T03:47:19.909Z,96059.84
2022-10-22T03:49:46.888Z,96053.28
2022-10-22T03:52:14.788Z,96051.00
2022-10-22T03:54:42.691Z,96049.41
2022-10-22T03:57:10.630Z,96064.38
2022-10-22T03:59:43.757Z,96051.06
2022-10-22T04:02:13.228Z,96048.94
2022-10-22T04:04:40.510Z,96055.91
2022-10-22T04:07:08.549Z,96059.59
2022-10-22T04:09:36.148Z,96059.22
2022-10-22T04:12:05.689Z,96045.25
2022-10-22T04:14:32.858Z,96048.38
2022-10-22T04:16:59.969Z,96048.38
2022-10-22T04:19:27.179Z,96058.28
2022-10-22T04:21:54.372Z,96060.66
2022-10-22T04:24:21.968Z,96059.63
2022-10-22T04:26:49.129Z,96056.00
2022-10-22T04:29:16.582Z,96058.34
2022-10-22T04:31:43.928Z,96071.19
2022-10-22T04:34:11.409Z,96077.47
2022-10-22T04:36:38.608Z,96068.75
2022-10-22T04:39:06.529Z,96068.28
2022-10-22T04:41:37.578Z,96072.72
2022-10-22T04:44:05.887Z,96071.38
2022-10-22T04:46:35.090Z,96077.34
2022-10-22T04:49:04.248Z,96065.13
2022-10-22T04:51:32.369Z,96067.25
2022-10-22T04:53:59.616Z,96075.81
2022-10-22T04:56:30.138Z,96081.69
2022-10-22T04:59:00.089Z,96065.72
2022-10-22T05:01:31.095Z,96062.06
2022-10-22T05:04:00.848Z,96067.88
2022-10-22T05:06:30.010Z,96064.22
2022-10-22T05:09:00.453Z,96054.78
2022-10-22T05:11:31.050Z,96056.84
2022-10-22T05:14:00.328Z,96055.00
2022-10-22T05:16:29.654Z,96046.59
2022-10-22T05:18:59.409Z,96040.09
2022-10-22T05:21:27.088Z,96048.97
2022-10-22T05:23:55.610Z,96046.03
2022-10-22T05:26:24.009Z,96040.50
2022-10-22T05:28:52.572Z,96049.41
2022-10-22T05:31:20.609Z,96047.34
2022-10-22T05:33:48.017Z,96049.72
2022-10-22T05:36:18.735Z,96043.19
2022-10-22T05:38:46.093Z,96039.06
2022-10-22T05:41:18.975Z,96030.47
2022-10-22T05:43:46.531Z,96034.72
2022-10-22T05:46:22.007Z,96027.19
2022-10-22T05:48:51.700Z,96034.06
2022-10-22T05:51:20.212Z,96038.31
2022-10-22T05:53:53.019Z,96054.09
2022-10-22T05:56:20.329Z,96055.13
2022-10-22T05:58:48.123Z,96052.16
2022-10-22T06:01:24.849Z,96048.44
2022-10-22T06:03:56.857Z,96044.81
2022-10-22T06:06:32.130Z,96051.66
2022-10-22T06:09:04.491Z,96040.19
2022-10-22T06:11:34.319Z,96038.91
2022-10-22T06:14:03.290Z,96054.69
2022-10-22T06:16:31.651Z,96054.44
2022-10-22T06:19:02.448Z,96061.03
2022-10-22T06:21:30.898Z,96069.50
2022-10-22T06:23:59.688Z,96066.66
2022-10-22T06:26:27.529Z,96073.47
2022-10-22T06:28:56.610Z,96076.34
2022-10-22T06:31:25.772Z,96090.09
2022-10-22T06:33:53.129Z,96089.09
2022-10-22T06:36:24.809Z,96086.00
2022-10-22T06:38:55.810Z,96085.81
2022-10-22T06:41:27.060Z,96088.47
2022-10-22T06:43:57.908Z,96094.81
2022-10-22T06:46:26.569Z,96097.72
2022-10-22T06:49:01.848Z,96088.84
2022-10-22T06:51:29.691Z,96082.13
2022-10-22T06:53:58.088Z,96084.53
2022-10-22T06:56:28.451Z,96090.41
2022-10-22T06:58:57.422Z,96087.31
2022-10-22T07:01:28.194Z,96103.66
2022-10-22T07:03:55.611Z,96106.63
2022-10-22T07:06:24.929Z,96120.88
2022-10-22T07:08:53.818Z,96121.22
2022-10-22T07:11:22.540Z,96124.13
2022-10-22T07:13:50.490Z,96116.59
2022-10-22T07:16:18.611Z,96117.94
2022-10-22T07:18:47.148Z,96126.38
2022-10-22T07:21:17.132Z,96117.78
2022-10-22T07:23:45.267Z,96117.25
2022-10-22T07:26:15.250Z,96116.50
2022-10-22T07:28:42.569Z,96108.66
2022-10-22T07:31:12.172Z,96112.63
2022-10-22T07:33:39.530Z,96122.38
2022-10-22T07:36:09.900Z,96140.78
2022-10-22T07:38:37.458Z,96138.69
2022-10-22T07:41:05.250Z,96148.19
2022-10-22T07:43:32.409Z,96153.19
2022-10-22T07:46:00.648Z,96158.50
2022-10-22T07:48:27.650Z,96156.16
2022-10-22T07:50:55.259Z,96160.13
2022-10-22T07:53:22.612Z,96155.94
2022-10-22T07:55:50.691Z,96161.22
2022-10-22T07:58:19.410Z,96165.19
2022-10-22T08:00:47.538Z,96166.78
2022-10-22T08:03:15.537Z,96167.63
2022-10-22T08:05:46.299Z,96169.47
2022-10-22T08:08:14.778Z,96167.63
2022-10-22T08:10:42.656Z,96175.81
2022-10-22T08:13:09.938Z,96180.28
2022-10-22T08:15:37.618Z,96182.97
2022-10-22T08:18:05.769Z,96190.63
2022-10-22T08:20:32.969Z,96191.94
2022-10-22T08:23:00.130Z,96190.91
2022-10-22T08:25:28.208Z,96191.69
2022-10-22T08:27:55.448Z,96193.28
2022-10-22T08:30:23.049Z,96206.19
2022-10-22T08:32:53.158Z,96215.19
2022-10-22T08:35:21.890Z,96207.03
2022-10-22T08:37:49.048Z,96205.44
2022-10-22T08:40:25.971Z,96208.59
2022-10-22T08:43:14.648Z,96201.22
2022-10-22T08:46:07.967Z,96207.84
2022-10-22T08:48:46.529Z,96209.97
2022-10-22T08:51:27.616Z,96206.53
2022-10-22T08:54:12.731Z,96217.34
2022-10-22T08:56:43.898Z,96219.72
2022-10-22T08:59:15.448Z,96211.03
2022-10-22T09:01:47.328Z,96212.09
2022-10-22T09:04:48.168Z,96211.31
2022-10-22T09:07:15.690Z,96214.97
2022-10-22T09:09:49.571Z,96214.72
2022-10-22T09:12:20.296Z,96221.81
2022-10-22T09:14:47.857Z,96225.25
2022-10-22T09:17:50.651Z,96221.31
2022-10-22T09:20:28.969Z,96225.78
2022-10-22T09:23:29.848Z,96221.31
2022-10-22T09:25:57.978Z,96228.16
2022-10-22T09:28:25.065Z,96230.50
2022-10-22T09:30:52.427Z,96232.38
2022-10-22T09:33:29.130Z,96232.34
2022-10-22T09:36:03.736Z,96242.88
2022-10-22T09:38:34.408Z,96245.53
2022-10-22T09:41:05.612Z,96250.81
2022-10-22T09:43:33.928Z,96245.78
2022-10-22T09:46:05.369Z,96251.34
2022-10-22T09:48:39.650Z,96241.84
2022-10-22T09:51:36.648Z,96243.41
2022-10-22T09:54:16.690Z,96241.84
2022-10-22T09:56:50.969Z,96244.47
2022-10-22T09:59:20.169Z,96242.88
2022-10-22T10:01:47.332Z,96241.84
2022-10-22T10:04:16.854Z,96243.94
2022-10-22T10:06:45.252Z,96242.88
2022-10-22T10:09:22.655Z,96235.78
2022-10-22T10:11:57.453Z,96241.59
2022-10-22T10:14:53.610Z,96239.47
2022-10-22T10:17:33.008Z,96250.28
2022-10-22T10:20:24.928Z,96262.16
2022-10-22T10:23:03.928Z,96248.16
2022-10-22T10:25:52.734Z,96257.66
2022-10-22T10:28:22.692Z,96260.84
2022-10-22T10:31:02.811Z,96266.09
2022-10-22T10:34:07.493Z,96265.84
2022-10-22T10:36:50.212Z,96268.72
2022-10-22T10:40:08.288Z,96261.06
2022-10-22T10:43:07.649Z,96273.47
2022-10-22T10:45:50.365Z,96284.84
2022-10-22T10:48:45.172Z,96284.06
2022-10-22T10:51:22.449Z,96277.69
2022-10-22T10:54:14.579Z,96286.41
2022-10-22T10:56:47.928Z,96301.97
2022-10-22T10:59:38.568Z,96300.38
2022-10-22T11:13:39.891Z,96323.63
2022-10-22T11:16:25.290Z,96325.72
2022-10-22T11:18:55.692Z,96321.50
2022-10-22T11:21:47.468Z,96317.03
2022-10-22T11:24:23.496Z,96317.31
2022-10-22T11:27:07.412Z,96316.22
2022-10-22T11:29:42.052Z,96316.22
2022-10-22T11:32:19.812Z,96309.66
2022-10-22T11:35:08.851Z,96305.94
2022-10-22T11:37:39.489Z,96302.75
2022-10-22T11:40:22.173Z,96302.72
2022-10-22T11:43:04.493Z,96301.88
2022-10-22T11:45:38.850Z,96301.34
2022-10-22T11:48:07.052Z,96301.84
2022-10-22T11:50:47.494Z,96304.19
2022-10-22T11:53:14.729Z,96301.25
2022-10-22T11:56:00.493Z,96311.00
2022-10-22T11:58:29.852Z,96300.91
2022-10-22T12:01:10.184Z,96305.91
2022-10-22T12:03:41.339Z,96301.94
2022-10-22T12:06:12.339Z,96309.31
2022-10-22T12:08:49.659Z,96309.59
2022-10-22T12:11:19.691Z,96310.63
2022-10-22T12:14:01.831Z,96313.53
2022-10-22T12:16:55.785Z,96314.03
2022-10-22T12:19:23.973Z,96312.19
2022-10-22T12:22:11.210Z,96304.75
2022-10-22T12:24:42.529Z,96306.91
2022-10-22T12:27:37.582Z,96306.06
2022-10-22T12:30:26.463Z,96303.16
2022-10-22T12:32:55.940Z,96308.19
2022-10-22T12:35:26.533Z,96308.19
2022-10-22T12:38:00.580Z,96310.56
2022-10-22T12:40:35.811Z,96311.91
2022-10-22T12:43:12.810Z,96316.91
2022-10-22T12:45:41.649Z,96321.69
2022-10-22T12:48:22.898Z,96321.44
2022-10-22T12:50:53.816Z,96318.53
2022-10-22T12:53:40.130Z,96312.22
2022-10-22T12:56:13.090Z,96317.53
2022-10-22T12:58:44.529Z,96311.44
2022-10-22T13:01:17.674Z,96317.56
2022-10-22T13:03:47.775Z,96321.03
2022-10-22T13:06:21.017Z,96332.13
2022-10-22T13:09:00.640Z,96336.88
2022-10-22T13:11:39.290Z,96329.00
2022-10-22T13:14:20.739Z,96336.69
2022-10-22T13:17:20.049Z,96332.97
2022-10-22T13:19:53.290Z,96333.81
2022-10-22T13:22:37.453Z,96336.19
2022-10-22T13:25:17.569Z,96330.41
2022-10-22T13:27:50.970Z,96335.16
2022-10-22T13:30:25.649Z,96345.19
2022-10-22T13:32:57.090Z,96335.66
2022-10-22T13:35:28.569Z,96338.88
2022-10-22T13:37:55.852Z,96337.28
2022-10-22T13:40:23.104Z,96340.19
2022-10-22T13:42:50.415Z,96338.34
2022-10-22T13:45:18.211Z,96338.59
2022-10-22T13:47:50.057Z,96328.28
2022-10-22T13:50:19.930Z,96329.34
2022-10-22T13:52:50.022Z,96328.84
2022-10-22T13:55:23.088Z,96335.19
2022-10-22T13:57:50.300Z,96336.25
2022-10-22T14:00:20.410Z,96333.38
2022-10-22T14:02:50.852Z,96345.25
2022-10-22T14:05:19.257Z,96351.28
2022-10-22T14:07:47.329Z,96356.59
2022-10-22T14:10:16.314Z,96362.16
2022-10-22T14:12:43.571Z,96363.47
2022-10-22T14:15:13.448Z,96371.09
2022-10-22T14:17:44.432Z,96372.47
2022-10-22T14:20:19.454Z,96378.78
2022-10-22T14:22:47.850Z,96381.16
2022-10-22T14:25:21.379Z,96388.53
2022-10-22T14:27:48.930Z,96384.31
2022-10-22T14:30:22.531Z,96389.03
2022-10-22T14:32:50.452Z,96393.03
2022-10-22T14:35:20.537Z,96387.22
2022-10-22T14:38:07.816Z,96409.38
2022-10-22T14:40:35.170Z,96409.63
2022-10-22T14:43:02.331Z,96411.47
2022-10-22T14:45:29.732Z,96399.06
2022-10-22T14:47:57.612Z,96400.66
2022-10-22T14:50:25.692Z,96403.81
2022-10-22T14:52:53.089Z,96411.19
2022-10-22T14:55:20.612Z,96407.00
2022-10-22T14:57:47.772Z,96402.22
2022-10-22T15:00:17.649Z,96394.56
2022-10-22T15:02:45.570Z,96398.53
2022-10-22T15:05:12.812Z,96400.66
2022-10-22T15:07:40.453Z,96397.22
2022-10-22T15:10:09.095Z,96404.84
2022-10-22T15:12:36.689Z,96413.28
2022-10-22T15:15:04.852Z,96417.25
2022-10-22T15:17:31.888Z,96408.53
2022-10-22T15:20:01.410Z,96416.16
2022-10-22T15:22:29.058Z,96411.97
2022-10-22T15:24:56.208Z,96418.53
2022-10-22T15:27:23.369Z,96421.69
2022-10-22T15:29:50.673Z,96425.63
2022-10-22T15:32:17.891Z,96421.41
2022-10-22T15:34:45.089Z,96418.50
2022-10-22T15:37:13.369Z,96417.97
2022-10-22T15:39:41.612Z,96415.59
2022-10-22T15:42:09.817Z,96417.44
2022-10-22T15:44:37.410Z,96424.81
2022-10-22T15:47:06.657Z,96433.75
2022-10-22T15:49:36.215Z,96430.63
2022-10-22T15:52:04.052Z,96427.19
2022-10-22T15:54:31.699Z,96423.47
2022-10-22T15:57:00.414Z,96420.84
2022-10-22T15:59:28.010Z,96434.81
2022-10-22T16:01:55.426Z,96439.28
2022-10-22T16:04:22.729Z,96444.84
2022-10-22T16:06:55.453Z,96447.47
2022-10-22T16:09:24.892Z,96453.78
2022-10-22T16:14:40.810Z,96456.13
2022-10-22T16:17:08.059Z,96471.13
2022-10-22T16:19:35.332Z,96476.91
2022-10-22T16:22:03.630Z,96486.94
2022-10-22T16:24:30.421Z,96488.75
2022-10-22T16:26:57.546Z,96506.91
2022-10-22T16:29:24.653Z,96516.38
2022-10-22T16:31:51.563Z,96517.88
2022-10-22T16:34:18.511Z,96519.97
2022-10-22T16:36:45.624Z,96526.31
2022-10-22T16:39:12.562Z,96523.94
2022-10-22T16:41:39.550Z,96529.44
2022-10-22T16:44:08.101Z,96532.88
2022-10-22T16:46:38.573Z,96524.19
2022-10-22T16:49:06.732Z,96524.66
2022-10-22T16:51:34.289Z,96516.25
2022-10-22T16:54:01.235Z,96521.75
2022-10-22T16:56:28.279Z,96519.38
2022-10-22T16:58:57.541Z,96519.59
2022-10-22T17:01:26.683Z,96525.66
2022-10-22T17:03:56.951Z,96521.94
2022-10-22T17:06:25.021Z,96535.38
2022-10-22T17:08:52.301Z,96539.28
2022-10-22T17:11:22.177Z,96544.78
2022-10-22T17:13:52.845Z,96547.63
2022-10-22T17:16:24.881Z,96559.94
2022-10-22T17:18:53.467Z,96561.19
2022-10-22T17:21:21.519Z,96562.16
2022-10-22T17:23:48.640Z,96559.25
2022-10-22T17:26:20.600Z,96560.78
2022-10-22T17:28:48.300Z,96565.75
2022-10-22T17:31:24.768Z,96571.78
2022-10-22T17:33:53.205Z,96570.91
2022-10-22T17:36:21.743Z,96576.38
2022-10-22T17:38:51.321Z,96573.38
2022-10-22T17:41:21.051Z,96575.97
2022-10-22T17:43:48.571Z,96583.00
2022-10-22T17:46:24.230Z,96575.59
2022-10-22T17:48:53.112Z,96573.69
2022-10-22T17:51:21.780Z,96584.94
2022-10-22T17:53:52.641Z,96576.44
2022-10-22T17:56:21.792Z,96582.19
2022-10-22T17:58:49.604Z,96580.53
2022-10-22T18:01:35.026Z,96592.56
2022-10-22T18:04:08.103Z,96590.69
2022-10-22T18:06:36.030Z,96589.03
2022-10-22T18:09:08.332Z,96591.31
2022-10-22T18:11:37.552Z,96599.38
2022-10-22T18:14:05.530Z,96594.13
2022-10-22T18:16:32.761Z,96603.59
2022-10-22T18:18:59.919Z,96601.44
2022-10-22T18:21:28.760Z,96601.72
2022-10-22T18:23:57.397Z,96602.50
2022-10-22T18:26:26.905Z,96605.38
2022-10-22T18:28:55.180Z,96608.81
2022-10-22T18:31:24.533Z,96600.13
2022-10-22T18:33:51.600Z,96606.97
2022-10-22T18:36:21.560Z,96616.06
2022-10-22T18:38:52.601Z,96612.06
2022-10-22T18:41:20.105Z,96615.44
2022-10-22T18:43:55.603Z,96619.56
2022-10-22T18:46:24.145Z,96625.31
2022-10-22T18:48:58.411Z,96633.66
2022-10-22T18:51:30.299Z,96635.97
2022-10-22T18:54:05.376Z,96643.06
2022-10-22T18:56:40.908Z,96641.94
2022-10-22T18:59:15.341Z,96646.06
2022-10-22T19:01:42.390Z,96652.94
2022-10-22T19:04:09.404Z,96651.56
2022-10-22T19:06:37.064Z,96647.91
2022-10-22T19:09:05.559Z,96657.53
2022-10-22T19:11:32.962Z,96661.19
2022-10-22T19:13:59.915Z,96666.69
2022-10-22T19:16:28.751Z,96663.25
2022-10-22T19:19:07.072Z,96668.50
2022-10-22T19:21:34.363Z,96666.91
2022-10-22T19:24:01.625Z,96666.09
2022-10-22T19:26:29.480Z,96661.34
2022-10-22T19:28:58.483Z,96658.16
2022-10-22T19:31:26.721Z,96661.25
2022-10-22T19:33:56.733Z,96661.72
2022-10-22T19:36:25.521Z,96663.56
2022-10-22T19:38:52.781Z,96665.03
2022-10-22T19:41:21.562Z,96667.94
2022-10-22T19:43:50.521Z,96674.22
2022-10-22T19:46:18.582Z,96684.41
2022-10-22T19:51:34.700Z,96683.50
2022-10-22T19:54:06.950Z,96683.97
2022-10-22T19:56:35.772Z,96695.41
2022-10-22T19:59:04.143Z,96689.59
2022-10-22T20:01:32.150Z,96695.28
2022-10-22T20:03:59.120Z,96694.25
2022-10-22T20:06:26.090Z,96693.47
2022-10-22T20:08:55.976Z,96696.78
2022-10-22T20:11:29.240Z,96701.69
2022-10-22T20:13:57.464Z,96700.66
2022-10-22T20:16:28.682Z,96707.28
2022-10-22T20:19:00.152Z,96703.88
2022-10-22T20:21:27.151Z,96699.06
2022-10-22T20:23:56.551Z,96705.91
2022-10-22T20:26:25.999Z,96706.72
2022-10-22T20:28:52.921Z,96704.09
2022-10-22T20:31:21.961Z,96705.47
2022-10-22T20:33:50.950Z,96711.28
2022-10-22T20:36:21.661Z,96707.84
2022-10-22T20:38:49.641Z,96710.78
2022-10-22T20:41:21.911Z,96713.19
2022-10-22T20:43:50.950Z,96717.41
2022-10-22T20:46:25.329Z,96718.22
2022-10-22T20:48:54.061Z,96721.41
2022-10-22T20:51:21.610Z,96713.19
2022-10-22T20:53:48.581Z,96704.75
2022-10-22T20:56:16.721Z,96712.75
2022-10-22T20:58:48.380Z,96709.41
2022-10-22T21:01:22.349Z,96705.53
2022-10-22T21:03:52.500Z,96716.81
2022-10-22T21:06:23.417Z,96720.69
2022-10-22T21:08:51.851Z,96723.66
2022-10-22T21:11:19.222Z,96719.78
2022-10-22T21:13:46.471Z,96721.81
2022-10-22T21:16:15.169Z,96721.50
2022-10-22T21:18:42.042Z,96732.22
2022-10-22T21:21:09.563Z,96729.59
2022-10-22T21:23:36.965Z,96729.03
2022-10-22T21:26:05.258Z,96720.63
2022-10-22T21:28:36.422Z,96737.94
2022-10-22T21:31:05.941Z,96736.50
2022-10-22T21:33:39.171Z,96733.16
2022-10-22T21:36:07.160Z,96728.41
2022-10-22T21:38:35.360Z,96726.81
2022-10-22T21:41:08.178Z,96735.91
2022-10-22T21:43:38.223Z,96734.09
2022-10-22T21:46:09.781Z,96739.59
2022-10-22T21:48:38.168Z,96739.59
2022-10-22T21:51:10.413Z,96742.22
2022-10-22T21:53:37.898Z,96737.88
2022-10-22T21:56:05.671Z,96745.66
2022-10-22T21:58:35.763Z,96750.78
2022-10-22T22:01:03.170Z,96743.16
2022-10-22T22:03:30.481Z,96745.78
2022-10-22T22:05:59.523Z,96750.78
2022-10-22T22:08:27.070Z,96749.50
2022-10-22T22:11:01.104Z,96753.06
2022-10-22T22:13:28.343Z,96749.09
2022-10-22T22:16:00.060Z,96750.78
2022-10-22T22:18:27.101Z,96753.88
2022-10-22T22:20:54.022Z,96753.06
2022-10-22T22:23:20.942Z,96755.56
2022-10-22T22:25:47.939Z,96758.44
2022-10-22T22:28:14.850Z,96759.81
2022-10-22T22:30:41.760Z,96754.09
2022-10-22T22:33:08.900Z,96751.47
2022-10-22T22:35:37.200Z,96745.66
2022-10-22T22:38:04.040Z,96746.34
2022-10-22T22:40:33.731Z,96748.38
2022-10-22T22:43:00.951Z,96755.44
2022-10-22T22:45:27.900Z,96755.91
2022-10-22T22:47:54.871Z,96744.28
2022-10-22T22:50:21.789Z,96739.28
2022-10-22T22:52:48.670Z,96735.16
2022-10-22T22:55:15.740Z,96736.41
2022-10-22T22:57:42.649Z,96730.59
2022-10-22T23:00:10.362Z,96739.03
2022-10-22T23:02:37.383Z,96748.88
2022-10-22T23:05:04.468Z,96745.91
2022-10-22T23:07:31.488Z,96742.94
2022-10-22T23:09:58.440Z,96739.16
2022-10-22T23:12:25.399Z,96742.69
2022-10-22T23:14:52.370Z,96740.53
2022-10-22T23:17:19.970Z,96737.66
2022-10-22T23:19:46.961Z,96737.75
2022-10-22T23:22:13.881Z,96735.94
2022-10-22T23:24:40.926Z,96732.53
2022-10-22T23:27:07.882Z,96721.50
2022-10-22T23:29:36.570Z,96734.22
2022-10-22T23:32:05.409Z,96727.59
2022-10-22T23:34:32.946Z,96720.66
2022-10-22T23:36:59.990Z,96723.28
2022-10-22T23:39:28.859Z,96717.59
2022-10-22T23:41:56.349Z,96722.25
2022-10-22T23:44:24.353Z,96708.59
2022-10-22T23:46:51.473Z,96711.09
2022-10-22T23:49:18.848Z,96714.31
2022-10-22T23:51:46.061Z,96715.09
2022-10-22T23:54:18.602Z,96714.09
2022-10-22T23:56:45.718Z,96706.81
